Time;durP1;ratioP1;P1;durP2;ratioP2;P2;SDS_P1;SDS_P2;PMS_P1;PMS_P2;Temp;Humidity;BMP_temperature;BMP_pressure;BME280_temperature;BME280_humidity;BME280_pressure;Samples;Min_cycle;Max_cycle;Signal;HPM_P1;HPM_P2
2023/01/06 00:00:32;;;;;;;18.35;9.07;;;9.90;99.90;;;;;;5093525;28;20086;-73
2023/01/06 00:02:57;;;;;;;17.90;8.60;;;10.00;99.90;;;;;;5094387;28;20059;-74
2023/01/06 00:05:23;;;;;;;15.80;7.93;;;9.90;99.90;;;;;;5075519;28;20067;-74
2023/01/06 00:07:50;;;;;;;15.70;8.27;;;9.90;99.90;;;;;;5093507;28;20048;-73
2023/01/06 00:10:16;;;;;;;13.98;7.63;;;10.00;99.90;;;;;;5075659;28;20048;-74
2023/01/06 00:12:45;;;;;;;14.38;7.63;;;9.90;99.90;;;;;;5093488;28;20040;-74
2023/01/06 00:15:11;;;;;;;13.57;7.13;;;9.90;99.90;;;;;;5096179;28;20372;-75
2023/01/06 00:17:37;;;;;;;13.52;7.15;;;9.90;99.90;;;;;;5097795;28;20071;-74
2023/01/06 00:20:04;;;;;;;15.10;7.68;;;10.00;99.90;;;;;;5097362;28;20500;-74
2023/01/06 00:22:30;;;;;;;17.70;8.40;;;9.90;99.90;;;;;;5079506;28;20480;-74
2023/01/06 00:24:55;;;;;;;18.92;8.18;;;10.00;99.90;;;;;;5097964;28;20047;-74
2023/01/06 00:27:21;;;;;;;15.55;8.65;;;10.00;99.90;;;;;;5062798;28;20123;-74
2023/01/06 00:29:48;;;;;;;15.70;8.48;;;10.00;99.90;;;;;;5097542;28;20426;-74
2023/01/06 00:32:14;;;;;;;17.33;7.97;;;10.00;99.90;;;;;;5097243;28;20051;-74
2023/01/06 00:34:39;;;;;;;19.02;8.18;;;10.00;99.90;;;;;;5062477;28;20047;-74
2023/01/06 00:37:05;;;;;;;18.42;7.95;;;10.00;99.90;;;;;;5096815;28;20154;-73
2023/01/06 00:39:31;;;;;;;21.48;8.63;;;10.00;99.90;;;;;;5097095;28;20082;-73
2023/01/06 00:42:02;;;;;;;17.98;8.73;;;10.00;99.90;;;;;;5097572;28;20085;-74
2023/01/06 00:44:33;;;;;;;16.70;8.38;;;10.00;99.90;;;;;;5097063;28;20040;-73
2023/01/06 00:46:59;;;;;;;23.48;8.82;;;10.00;99.90;;;;;;5097002;28;20048;-74
2023/01/06 00:49:25;;;;;;;17.40;8.10;;;10.00;99.90;;;;;;5096859;28;20055;-74
2023/01/06 00:51:52;;;;;;;23.70;10.02;;;10.00;99.90;;;;;;5096864;28;20089;-73
2023/01/06 00:54:18;;;;;;;24.00;10.07;;;10.00;99.90;;;;;;5078913;28;20067;-73
2023/01/06 00:56:49;;;;;;;18.92;9.80;;;10.00;99.90;;;;;;5078384;28;20055;-73
2023/01/06 00:59:18;;;;;;;27.17;10.35;;;10.10;99.90;;;;;;5097550;28;20055;-73
2023/01/06 01:01:45;;;;;;;21.30;9.50;;;10.00;99.90;;;;;;5079298;28;20052;-73
2023/01/06 01:04:11;;;;;;;24.52;10.57;;;10.00;99.90;;;;;;5096303;28;20492;-74
2023/01/06 01:06:37;;;;;;;21.35;10.23;;;10.00;99.90;;;;;;5096548;28;20510;-73
2023/01/06 01:09:04;;;;;;;19.42;9.48;;;10.10;99.90;;;;;;5078508;28;20130;-73
2023/01/06 01:14:17;;;;;;;20.13;9.25;;;10.10;99.90;;;;;;5097024;28;20101;-72
2023/01/06 01:16:43;;;;;;;21.35;9.73;;;10.10;99.90;;;;;;5096983;28;20052;-74
2023/01/06 01:19:10;;;;;;;20.27;9.43;;;10.10;99.90;;;;;;5096921;28;20395;-74
2023/01/06 01:21:36;;;;;;;18.40;9.43;;;10.10;99.90;;;;;;5097109;28;20067;-73
2023/01/06 01:24:02;;;;;;;18.52;8.80;;;10.10;99.90;;;;;;5096381;28;20360;-73
2023/01/06 01:26:28;;;;;;;18.95;9.23;;;10.10;99.90;;;;;;5095417;28;20052;-73
2023/01/06 01:28:53;;;;;;;19.83;7.97;;;10.10;99.90;;;;;;5078376;28;20135;-73
2023/01/06 01:31:19;;;;;;;16.13;8.35;;;10.10;99.90;;;;;;5096404;28;20108;-73
2023/01/06 01:33:46;;;;;;;16.52;8.52;;;10.20;99.90;;;;;;5096043;28;20123;-73
2023/01/06 01:36:14;;;;;;;14.95;8.40;;;10.20;99.90;;;;;;5096553;28;20115;-73
2023/01/06 01:38:40;;;;;;;18.65;8.65;;;10.10;99.90;;;;;;5095987;28;20043;-73
2023/01/06 01:41:06;;;;;;;15.23;7.57;;;10.20;99.90;;;;;;5096417;28;20063;-73
2023/01/06 01:43:56;;;;;;;15.40;8.38;;;10.10;99.90;;;;;;5096426;28;20136;-73
2023/01/06 01:46:30;;;;;;;14.85;7.28;;;10.20;99.90;;;;;;5097059;28;20345;-73
2023/01/06 01:49:01;;;;;;;13.07;6.40;;;10.20;99.90;;;;;;5096122;28;20048;-74
2023/01/06 01:51:34;;;;;;;8.50;6.55;;;10.20;99.90;;;;;;5078247;28;20443;-73
2023/01/06 01:54:06;;;;;;;12.05;5.82;;;10.10;99.90;;;;;;5077608;28;20078;-73
2023/01/06 01:56:35;;;;;;;10.07;5.78;;;10.20;99.90;;;;;;5077010;28;20063;-73
2023/01/06 01:59:14;;;;;;;10.18;4.90;;;10.20;99.90;;;;;;5096460;28;20136;-72
2023/01/06 02:01:40;;;;;;;9.18;5.70;;;10.20;99.90;;;;;;5078305;28;20080;-73
2023/01/06 02:04:07;;;;;;;9.48;4.90;;;10.10;99.90;;;;;;5077660;28;20075;-72
2023/01/06 02:06:33;;;;;;;12.98;5.35;;;10.20;99.90;;;;;;5095462;28;20127;-73
2023/01/06 02:09:32;;;;;;;10.68;5.88;;;10.20;99.90;;;;;;5095445;28;20127;-72
2023/01/06 02:11:58;;;;;;;13.02;6.00;;;10.10;99.90;;;;;;5095956;28;20044;-73
2023/01/06 02:14:26;;;;;;;14.93;6.57;;;10.10;99.90;;;;;;5095257;28;20052;-73
2023/01/06 02:16:57;;;;;;;13.38;6.20;;;10.10;99.90;;;;;;5095268;28;20051;-72
2023/01/06 02:19:46;;;;;;;10.38;5.65;;;10.10;99.90;;;;;;5077159;28;20076;-72
2023/01/06 02:22:40;;;;;;;11.77;6.35;;;10.10;99.90;;;;;;5082434;28;20476;-72
2023/01/06 02:25:34;;;;;;;13.90;6.25;;;10.20;99.90;;;;;;5095135;28;20048;-74
2023/01/06 02:28:06;;;;;;;11.93;6.03;;;10.20;99.90;;;;;;5095061;28;20067;-73
2023/01/06 02:30:34;;;;;;;10.63;5.75;;;10.20;99.90;;;;;;5077421;28;20047;-72
2023/01/06 02:33:16;;;;;;;11.77;5.70;;;10.20;99.90;;;;;;5095502;28;20361;-71
2023/01/06 02:35:58;;;;;;;10.80;5.30;;;10.20;99.90;;;;;;5095190;28;20048;-72
2023/01/06 02:38:39;;;;;;;11.68;5.13;;;10.10;99.90;;;;;;5094605;28;20087;-72
2023/01/06 02:41:26;;;;;;;12.80;5.45;;;10.20;99.90;;;;;;5077596;28;20055;-71
2023/01/06 02:44:10;;;;;;;14.27;5.00;;;10.20;99.90;;;;;;5094734;28;20082;-71
2023/01/06 02:46:56;;;;;;;10.95;5.70;;;10.10;99.90;;;;;;5094988;28;20048;-71
2023/01/06 02:49:40;;;;;;;9.23;4.60;;;10.20;99.90;;;;;;5094644;28;20051;-72
2023/01/06 02:52:12;;;;;;;11.13;5.45;;;10.10;99.90;;;;;;5094604;28;20037;-73
2023/01/06 02:54:56;;;;;;;10.27;5.07;;;10.20;99.90;;;;;;5094868;28;20438;-73
2023/01/06 02:57:42;;;;;;;10.77;4.90;;;10.20;99.90;;;;;;5095208;28;20063;-72
2023/01/06 03:00:21;;;;;;;6.30;4.68;;;10.20;99.90;;;;;;5094704;28;20406;-73
2023/01/06 03:02:58;;;;;;;10.73;4.90;;;10.20;99.90;;;;;;5094412;28;20043;-73
2023/01/06 03:05:25;;;;;;;6.28;4.18;;;10.20;99.90;;;;;;5076526;28;20105;-71
2023/01/06 03:07:54;;;;;;;8.50;3.78;;;10.20;99.90;;;;;;5094284;28;20048;-72
2023/01/06 03:10:21;;;;;;;8.43;3.70;;;10.10;99.90;;;;;;5094247;28;20053;-73
2023/01/06 03:12:50;;;;;;;9.13;3.80;;;10.10;99.90;;;;;;5094231;28;20048;-70
2023/01/06 03:15:16;;;;;;;10.18;4.05;;;10.10;99.90;;;;;;5094122;28;20051;-71
2023/01/06 03:17:42;;;;;;;8.93;4.05;;;10.10;99.90;;;;;;5094104;28;20040;-71
2023/01/06 03:20:10;;;;;;;7.90;4.20;;;10.20;99.90;;;;;;5094001;28;20119;-72
2023/01/06 03:22:37;;;;;;;9.93;4.57;;;10.10;99.90;;;;;;5094560;28;20055;-72
2023/01/06 03:25:05;;;;;;;8.95;3.88;;;10.10;99.90;;;;;;5093692;28;20055;-72
2023/01/06 03:27:31;;;;;;;6.72;4.05;;;10.20;99.90;;;;;;5093908;28;20130;-72
2023/01/06 03:29:57;;;;;;;6.07;3.35;;;10.20;99.90;;;;;;5075876;28;20051;-71
2023/01/06 03:32:46;;;;;;;8.52;4.55;;;10.20;99.90;;;;;;5076481;28;20364;-71
2023/01/06 03:35:23;;;;;;;6.75;3.70;;;10.20;99.90;;;;;;5093909;28;20055;-71
2023/01/06 03:38:21;;;;;;;7.05;3.92;;;10.20;99.90;;;;;;5076356;28;20055;-71
2023/01/06 03:41:04;;;;;;;6.40;3.72;;;10.20;99.90;;;;;;5076714;28;20048;-72
2023/01/06 03:43:57;;;;;;;6.13;3.58;;;10.20;99.90;;;;;;5094410;28;20087;-71
2023/01/06 03:46:58;;;;;;;7.25;3.53;;;10.10;99.90;;;;;;5094412;28;20052;-72
2023/01/06 03:49:37;;;;;;;7.80;3.70;;;10.20;99.90;;;;;;5094393;28;20092;-72
2023/01/06 03:52:19;;;;;;;6.70;3.70;;;10.10;99.90;;;;;;5093732;28;20036;-71
2023/01/06 03:54:55;;;;;;;5.72;4.00;;;10.10;99.90;;;;;;5060061;28;20043;-71
2023/01/06 03:57:39;;;;;;;6.28;3.58;;;10.10;99.90;;;;;;5093994;28;20098;-71
2023/01/06 04:00:10;;;;;;;6.70;3.50;;;10.10;99.90;;;;;;5093684;28;20048;-71
2023/01/06 04:02:38;;;;;;;6.65;3.90;;;10.10;99.90;;;;;;5094494;28;20040;-71
2023/01/06 04:05:19;;;;;;;7.40;3.42;;;10.10;99.90;;;;;;5093537;28;20208;-72
2023/01/06 04:07:45;;;;;;;6.60;3.40;;;10.10;99.90;;;;;;5094443;28;20052;-71
2023/01/06 04:10:12;;;;;;;5.78;3.17;;;10.10;99.90;;;;;;5093532;28;20097;-71
2023/01/06 04:12:38;;;;;;;4.53;3.28;;;10.10;99.90;;;;;;5093467;28;20051;-72
2023/01/06 04:15:12;;;;;;;5.38;2.90;;;10.10;99.90;;;;;;5093987;28;20052;-71
2023/01/06 04:17:39;;;;;;;5.53;3.17;;;10.10;99.90;;;;;;5094080;28;20377;-71
2023/01/06 04:20:06;;;;;;;5.55;3.38;;;10.10;99.90;;;;;;5094194;28;20048;-71
2023/01/06 04:22:32;;;;;;;4.30;3.33;;;10.10;99.90;;;;;;5093370;28;20126;-71
2023/01/06 04:24:57;;;;;;;7.45;3.42;;;10.10;99.90;;;;;;5075372;28;20169;-72
2023/01/06 04:27:23;;;;;;;8.35;4.45;;;10.10;99.90;;;;;;5093231;28;20052;-71
2023/01/06 04:29:49;;;;;;;7.43;3.83;;;10.10;99.90;;;;;;5093356;28;20044;-71
2023/01/06 04:32:15;;;;;;;5.13;3.60;;;10.10;99.90;;;;;;5093296;28;20043;-72
2023/01/06 04:34:40;;;;;;;4.63;3.20;;;10.10;99.90;;;;;;5075482;28;20480;-71
2023/01/06 04:37:06;;;;;;;8.02;3.63;;;10.10;99.90;;;;;;5094040;28;20048;-71
2023/01/06 04:39:32;;;;;;;4.72;3.53;;;10.10;99.90;;;;;;5092936;28;20052;-72
2023/01/06 04:41:57;;;;;;;5.65;3.30;;;10.10;99.90;;;;;;5075926;28;20046;-72
2023/01/06 04:44:24;;;;;;;6.25;3.58;;;10.10;99.90;;;;;;5093736;28;20080;-72
2023/01/06 04:46:49;;;;;;;3.90;2.90;;;10.10;99.90;;;;;;5093143;28;20051;-72
2023/01/06 04:49:15;;;;;;;5.18;3.15;;;10.10;99.90;;;;;;5093478;28;20052;-72
2023/01/06 04:51:41;;;;;;;4.85;3.40;;;10.10;99.90;;;;;;5075257;28;20048;-72
2023/01/06 04:54:06;;;;;;;5.15;3.70;;;10.10;99.90;;;;;;5093058;28;20131;-72
2023/01/06 04:56:32;;;;;;;4.43;3.85;;;10.00;99.90;;;;;;5074657;28;20051;-72
2023/01/06 04:58:58;;;;;;;5.70;3.78;;;10.10;99.90;;;;;;5093073;28;20120;-71
2023/01/06 05:01:25;;;;;;;6.03;3.30;;;10.10;99.90;;;;;;5077015;28;20059;-72
2023/01/06 05:03:51;;;;;;;5.47;4.15;;;10.00;99.90;;;;;;5096666;28;20108;-73
2023/01/06 05:06:17;;;;;;;6.43;3.83;;;10.10;99.90;;;;;;5097153;28;20127;-71
2023/01/06 05:08:44;;;;;;;8.70;4.00;;;10.00;99.90;;;;;;5096598;28;20047;-72
2023/01/06 05:11:16;;;;;;;6.75;4.20;;;10.00;99.90;;;;;;5096510;28;20166;-72
2023/01/06 05:13:41;;;;;;;6.30;4.25;;;10.00;99.90;;;;;;5078437;28;20048;-72
2023/01/06 05:16:29;;;;;;;7.72;4.63;;;10.00;99.90;;;;;;5096448;28;20044;-72
2023/01/06 05:18:55;;;;;;;7.10;4.60;;;10.00;99.90;;;;;;5078610;28;20063;-72
2023/01/06 05:21:23;;;;;;;7.72;4.38;;;10.00;99.90;;;;;;5096279;28;20533;-71
2023/01/06 05:23:49;;;;;;;6.25;4.40;;;10.00;99.90;;;;;;5096282;28;20048;-72
2023/01/06 05:26:17;;;;;;;6.65;4.63;;;9.90;99.90;;;;;;5096190;28;20047;-72
2023/01/06 05:28:43;;;;;;;11.93;4.82;;;10.00;99.90;;;;;;5079106;28;20437;-72
2023/01/06 05:31:10;;;;;;;7.40;5.25;;;10.00;99.90;;;;;;5096204;28;20115;-71
2023/01/06 05:33:35;;;;;;;7.90;5.15;;;9.90;99.90;;;;;;5061727;28;20455;-72
2023/01/06 05:36:04;;;;;;;8.50;5.10;;;10.00;99.90;;;;;;5096122;28;20048;-72
2023/01/06 05:38:30;;;;;;;6.47;5.18;;;10.00;99.90;;;;;;5078118;28;20395;-72
2023/01/06 05:40:56;;;;;;;6.75;5.13;;;9.90;99.90;;;;;;5095901;28;20044;-71
2023/01/06 05:43:23;;;;;;;6.40;5.15;;;9.90;99.90;;;;;;5095884;28;20040;-72
2023/01/06 05:45:49;;;;;;;6.55;5.15;;;10.00;99.90;;;;;;5078342;28;20044;-72
2023/01/06 05:48:15;;;;;;;7.15;4.97;;;10.00;99.90;;;;;;5096682;28;20105;-70
2023/01/06 05:50:40;;;;;;;6.60;4.90;;;9.90;99.90;;;;;;5078524;28;20055;-72
2023/01/06 05:53:06;;;;;;;7.57;5.50;;;10.00;99.90;;;;;;5096553;28;20079;-71
2023/01/06 05:55:32;;;;;;;6.45;4.47;;;10.00;99.90;;;;;;5095692;28;20044;-72
2023/01/06 05:57:59;;;;;;;6.38;4.75;;;10.00;99.90;;;;;;5078102;28;20464;-73
2023/01/06 06:00:25;;;;;;;5.20;4.40;;;10.00;99.90;;;;;;5095990;28;20078;-71
2023/01/06 06:02:50;;;;;;;5.55;4.25;;;10.00;99.90;;;;;;5077882;28;20384;-71
2023/01/06 06:05:16;;;;;;;6.07;4.30;;;10.00;99.90;;;;;;5061305;28;20054;-72
2023/01/06 06:07:42;;;;;;;4.85;3.50;;;10.00;99.90;;;;;;5095700;28;20048;-71
2023/01/06 06:10:08;;;;;;;4.80;3.80;;;10.10;99.90;;;;;;5095416;28;20036;-71
2023/01/06 06:12:34;;;;;;;3.60;3.30;;;10.00;99.90;;;;;;5078192;28;20063;-71
2023/01/06 06:15:00;;;;;;;3.33;3.00;;;10.00;99.90;;;;;;5095246;28;20088;-70
2023/01/06 06:17:26;;;;;;;6.68;3.60;;;10.00;99.90;;;;;;5094898;28;20047;-70
2023/01/06 06:19:52;;;;;;;5.85;3.13;;;10.00;99.90;;;;;;5095231;28;20052;-71
2023/01/06 06:22:18;;;;;;;4.05;2.92;;;10.00;99.90;;;;;;5076837;28;20047;-71
2023/01/06 06:24:44;;;;;;;4.65;2.75;;;10.00;99.90;;;;;;5095718;28;20079;-70
2023/01/06 06:27:09;;;;;;;5.82;3.47;;;10.00;99.90;;;;;;5095854;28;20451;-71
2023/01/06 06:29:35;;;;;;;5.50;3.25;;;10.00;99.90;;;;;;5094946;28;20040;-71
2023/01/06 06:32:01;;;;;;;5.80;3.63;;;10.00;99.90;;;;;;5095103;28;20119;-72
2023/01/06 06:34:26;;;;;;;5.35;3.35;;;9.90;99.90;;;;;;5094929;28;20070;-72
2023/01/06 06:36:53;;;;;;;5.93;3.55;;;9.90;99.90;;;;;;5094929;28;20048;-71
2023/01/06 06:39:18;;;;;;;4.25;3.55;;;9.90;99.90;;;;;;5095089;28;20105;-72
2023/01/06 06:41:44;;;;;;;4.70;3.90;;;9.90;99.90;;;;;;5094719;28;20392;-73
2023/01/06 06:44:10;;;;;;;5.85;4.03;;;9.90;99.90;;;;;;5095049;28;20365;-72
2023/01/06 06:46:35;;;;;;;4.95;4.38;;;9.90;99.90;;;;;;5094708;28;20123;-71
2023/01/06 06:49:01;;;;;;;7.13;4.65;;;9.90;99.90;;;;;;5094655;28;20054;-72
2023/01/06 06:51:29;;;;;;;6.82;4.63;;;9.80;99.90;;;;;;5076525;28;20040;-72
2023/01/06 06:53:55;;;;;;;6.07;4.43;;;9.80;99.90;;;;;;5094569;28;20051;-72
2023/01/06 06:56:20;;;;;;;6.32;4.68;;;9.80;99.90;;;;;;5094623;28;20084;-72
2023/01/06 06:58:47;;;;;;;6.32;4.60;;;9.80;99.90;;;;;;5077026;28;20044;-73
2023/01/06 07:01:15;;;;;;;5.70;4.50;;;9.80;99.90;;;;;;5094377;28;20097;-73
2023/01/06 07:03:41;;;;;;;7.15;4.82;;;9.80;99.90;;;;;;5094383;28;20040;-72
2023/01/06 07:06:10;;;;;;;6.82;5.10;;;9.80;99.90;;;;;;5059871;28;20054;-73
2023/01/06 07:08:36;;;;;;;6.80;4.97;;;9.70;99.90;;;;;;5094872;28;20051;-73
2023/01/06 07:11:01;;;;;;;8.35;4.95;;;9.80;99.90;;;;;;5094539;28;20051;-73
2023/01/06 07:13:27;;;;;;;6.90;4.95;;;9.70;99.90;;;;;;5094208;28;20036;-73
2023/01/06 07:15:53;;;;;;;6.75;4.80;;;9.70;99.90;;;;;;5094161;28;20059;-74
2023/01/06 07:18:18;;;;;;;6.32;4.82;;;9.70;99.90;;;;;;5093887;28;20094;-72
2023/01/06 07:20:50;;;;;;;7.95;5.13;;;9.70;99.90;;;;;;5076165;28;20048;-72
2023/01/06 07:23:16;;;;;;;6.18;4.38;;;9.70;99.90;;;;;;5075811;28;20079;-72
2023/01/06 07:25:42;;;;;;;5.72;4.47;;;9.70;99.90;;;;;;5094476;28;20048;-73
2023/01/06 07:28:08;;;;;;;5.78;3.88;;;9.70;99.90;;;;;;5093971;28;20047;-73
2023/01/06 07:30:35;;;;;;;5.43;4.50;;;9.70;99.90;;;;;;5076691;28;20056;-73
2023/01/06 07:33:01;;;;;;;5.95;4.90;;;9.70;99.90;;;;;;5095056;28;20055;-73
2023/01/06 07:35:27;;;;;;;8.18;4.57;;;9.70;99.90;;;;;;5093896;28;20047;-73
2023/01/06 07:37:53;;;;;;;6.93;4.63;;;9.70;99.90;;;;;;5094441;28;20047;-72
2023/01/06 07:40:18;;;;;;;8.50;4.60;;;9.70;99.90;;;;;;5076750;28;20480;-75
2023/01/06 07:42:44;;;;;;;8.05;4.57;;;9.60;99.90;;;;;;5094054;28;20043;-72
2023/01/06 07:45:11;;;;;;;6.60;4.22;;;9.60;99.90;;;;;;5094025;28;20047;-72
2023/01/06 07:47:36;;;;;;;5.15;3.90;;;9.60;99.90;;;;;;5059240;28;20063;-72
2023/01/06 07:50:04;;;;;;;4.90;3.92;;;9.60;99.90;;;;;;5093713;28;20048;-72
2023/01/06 07:52:29;;;;;;;5.55;3.42;;;9.60;99.90;;;;;;5094197;28;20097;-72
2023/01/06 07:54:58;;;;;;;4.10;3.38;;;9.60;99.90;;;;;;5094787;28;20486;-70
2023/01/06 07:57:25;;;;;;;6.78;3.83;;;9.60;99.90;;;;;;5051847;28;20059;-71
2023/01/06 07:59:51;;;;;;;5.03;3.60;;;9.60;99.90;;;;;;5093657;28;20056;-72
2023/01/06 08:02:17;;;;;;;4.95;2.70;;;9.60;99.90;;;;;;5075441;28;20074;-73
2023/01/06 08:04:42;;;;;;;3.60;2.75;;;9.60;99.90;;;;;;5058821;28;20097;-69
2023/01/06 08:07:08;;;;;;;3.83;2.60;;;9.50;99.90;;;;;;5093572;28;20048;-72
2023/01/06 08:09:34;;;;;;;3.95;1.67;;;9.60;99.90;;;;;;5094074;28;20422;-72
2023/01/06 08:11:59;;;;;;;2.38;1.50;;;9.60;99.90;;;;;;5093770;28;20044;-80
2023/01/06 08:14:25;;;;;;;2.03;1.38;;;9.60;99.90;;;;;;5093476;28;20043;-71
2023/01/06 08:16:51;;;;;;;2.13;1.10;;;9.70;99.90;;;;;;5075139;28;20083;-69
2023/01/06 08:19:16;;;;;;;2.50;0.90;;;9.70;99.90;;;;;;5093359;28;20048;-68
2023/01/06 08:21:42;;;;;;;1.45;0.40;;;9.70;99.90;;;;;;5093305;28;20043;-71
2023/01/06 08:24:08;;;;;;;1.38;0.40;;;9.70;99.90;;;;;;5075309;28;20086;-70
2023/01/06 08:26:34;;;;;;;1.95;0.55;;;9.70;99.90;;;;;;5093192;28;20101;-71
2023/01/06 08:29:00;;;;;;;1.85;0.50;;;9.60;99.90;;;;;;5093305;28;20480;-71
2023/01/06 08:31:25;;;;;;;1.10;0.40;;;9.60;99.90;;;;;;5058802;28;20044;-70
2023/01/06 08:33:52;;;;;;;2.40;0.40;;;9.50;99.90;;;;;;5075646;28;20080;-72
2023/01/06 08:36:19;;;;;;;0.35;0.25;;;9.50;99.90;;;;;;5095808;28;20396;-71
2023/01/06 08:38:46;;;;;;;0.40;0.30;;;9.40;99.90;;;;;;5097935;28;20425;-70
2023/01/06 08:41:12;;;;;;;0.82;0.45;;;9.40;99.90;;;;;;5097033;28;20468;-70
2023/01/06 08:43:40;;;;;;;1.90;0.50;;;9.30;99.90;;;;;;5097050;28;20044;-69
2023/01/06 08:46:08;;;;;;;0.85;0.30;;;9.30;99.90;;;;;;5078879;28;20051;-69
2023/01/06 08:48:34;;;;;;;1.35;0.32;;;9.20;99.90;;;;;;5097027;28;20059;-70
2023/01/06 08:51:09;;;;;;;1.73;0.40;;;9.20;99.90;;;;;;5096945;28;20119;-70
2023/01/06 08:53:35;;;;;;;0.90;0.30;;;9.10;99.90;;;;;;5080520;28;20040;-70
2023/01/06 08:56:00;;;;;;;1.10;0.30;;;9.10;99.90;;;;;;5097073;28;20043;-69
2023/01/06 08:58:26;;;;;;;1.33;0.20;;;9.30;99.90;;;;;;5079357;28;20058;-69
2023/01/06 09:00:52;;;;;;;0.93;0.30;;;9.00;99.90;;;;;;5096802;28;20044;-70
2023/01/06 09:03:18;;;;;;;0.82;0.40;;;9.00;99.90;;;;;;5097444;28;20457;-70
2023/01/06 09:05:50;;;;;;;0.85;0.20;;;9.00;99.90;;;;;;5096877;28;20074;-70
2023/01/06 09:08:16;;;;;;;2.47;0.75;;;9.20;99.90;;;;;;5096854;28;20044;-70
2023/01/06 09:10:41;;;;;;;0.90;0.30;;;9.00;99.90;;;;;;5096755;28;20089;-70
2023/01/06 09:13:07;;;;;;;1.85;0.30;;;9.00;99.90;;;;;;5078772;28;20080;-70
2023/01/06 09:15:33;;;;;;;2.03;0.40;;;8.90;99.90;;;;;;5078652;28;20475;-68
2023/01/06 09:17:59;;;;;;;3.28;0.43;;;8.90;99.90;;;;;;5061963;28;20043;-68
2023/01/06 09:20:24;;;;;;;1.67;0.30;;;8.90;99.90;;;;;;5078951;28;20052;-68
2023/01/06 09:22:50;;;;;;;1.45;0.30;;;8.80;99.90;;;;;;5061850;28;20051;-67
2023/01/06 09:25:17;;;;;;;2.20;0.30;;;8.90;99.90;;;;;;5096780;28;20055;-68
2023/01/06 09:27:42;;;;;;;1.30;0.30;;;8.80;99.90;;;;;;5096878;28;20118;-68
2023/01/06 09:30:09;;;;;;;1.50;0.30;;;8.90;99.90;;;;;;5096379;28;20052;-68
2023/01/06 09:32:34;;;;;;;1.05;0.28;;;8.90;99.90;;;;;;5096308;28;20426;-67
2023/01/06 09:35:00;;;;;;;0.98;0.30;;;8.80;99.90;;;;;;5096210;28;20040;-68
2023/01/06 09:37:26;;;;;;;3.38;0.40;;;8.80;99.90;;;;;;5078575;28;20042;-67
2023/01/06 09:39:51;;;;;;;2.88;0.40;;;8.80;99.90;;;;;;5097035;28;20456;-68
2023/01/06 09:42:51;;;;;;;3.88;0.30;;;8.80;99.90;;;;;;5096572;28;20040;-68
2023/01/06 09:45:33;;;;;;;1.92;0.40;;;8.70;99.90;;;;;;5096101;28;20118;-68
2023/01/06 09:48:01;;;;;;;2.58;0.30;;;8.80;99.90;;;;;;5095644;28;20040;-70
2023/01/06 09:50:38;;;;;;;2.63;0.38;;;8.70;99.90;;;;;;5095927;28;20131;-70
2023/01/06 09:53:07;;;;;;;3.78;0.40;;;8.80;99.90;;;;;;5096714;28;20075;-70
2023/01/06 09:55:48;;;;;;;1.85;0.35;;;8.80;99.90;;;;;;5078057;28;20051;-71
2023/01/06 09:58:21;;;;;;;3.78;0.68;;;8.80;99.90;;;;;;5078138;28;20188;-74
2023/01/06 10:00:53;;;;;;;1.35;0.30;;;8.70;99.90;;;;;;5095655;28;20044;-71
2023/01/06 10:03:22;;;;;;;3.85;0.43;;;8.80;99.90;;;;;;5096361;28;20047;-70
2023/01/06 10:06:01;;;;;;;2.33;0.40;;;8.80;99.90;;;;;;5095669;28;20173;-71
2023/01/06 10:08:48;;;;;;;4.30;0.65;;;8.90;99.90;;;;;;5095651;28;20040;-71
2023/01/06 10:11:48;;;;;;;4.22;0.40;;;8.90;99.90;;;;;;5095573;28;20083;-69
2023/01/06 10:14:20;;;;;;;5.25;0.55;;;8.90;99.90;;;;;;5096336;28;20101;-67
2023/01/06 10:16:46;;;;;;;3.53;0.40;;;8.90;99.90;;;;;;5096204;28;20067;-70
2023/01/06 10:19:38;;;;;;;4.25;0.50;;;8.80;99.90;;;;;;5095322;28;20480;-68
2023/01/06 10:22:31;;;;;;;4.93;0.88;;;8.90;99.90;;;;;;5078053;28;20128;-72
2023/01/06 10:25:32;;;;;;;3.85;1.20;;;8.90;99.90;;;;;;5095878;28;20044;-74
2023/01/06 10:28:09;;;;;;;3.92;1.02;;;9.00;99.90;;;;;;5060942;28;20054;-73
2023/01/06 10:30:42;;;;;;;3.00;0.52;;;9.00;99.90;;;;;;5095245;28;20056;-72
2023/01/06 10:33:22;;;;;;;4.45;0.50;;;8.90;99.90;;;;;;5095103;28;20541;-69
2023/01/06 10:35:48;;;;;;;6.47;0.82;;;8.90;99.90;;;;;;5095670;28;20052;-69
2023/01/06 10:38:15;;;;;;;3.38;0.50;;;9.00;99.90;;;;;;5077631;28;20051;-72
2023/01/06 10:40:41;;;;;;;4.60;0.65;;;9.10;99.90;;;;;;5095160;28;20473;-69
2023/01/06 10:43:11;;;;;;;6.35;0.70;;;9.00;99.90;;;;;;5060706;28;20051;-71
2023/01/06 10:45:44;;;;;;;4.07;0.60;;;9.00;99.90;;;;;;5094807;28;20496;-69
2023/01/06 10:48:12;;;;;;;5.32;0.60;;;9.00;99.90;;;;;;5094638;28;20055;-71
2023/01/06 10:50:37;;;;;;;3.03;0.43;;;9.00;99.90;;;;;;5094755;28;20052;-69
2023/01/06 10:53:03;;;;;;;4.40;0.63;;;9.10;99.90;;;;;;5095301;28;20056;-69
2023/01/06 10:56:01;;;;;;;4.75;0.60;;;9.10;99.90;;;;;;5094666;28;20389;-68
2023/01/06 10:58:34;;;;;;;1.98;0.50;;;9.10;99.90;;;;;;5080893;28;20105;-68
2023/01/06 11:01:10;;;;;;;4.47;0.60;;;9.10;99.90;;;;;;5094990;28;20380;-68
2023/01/06 11:03:41;;;;;;;6.88;0.88;;;9.10;99.90;;;;;;5094460;28;20091;-67
2023/01/06 11:06:14;;;;;;;2.75;0.40;;;9.10;99.90;;;;;;5094530;28;20052;-68
2023/01/06 11:08:40;;;;;;;6.65;0.73;;;9.30;99.90;;;;;;5094471;28;20036;-68
2023/01/06 11:11:13;;;;;;;6.25;0.57;;;9.20;99.90;;;;;;5094416;28;20105;-68
2023/01/06 11:13:45;;;;;;;4.53;0.47;;;9.20;99.90;;;;;;5076397;28;20521;-68
2023/01/06 11:16:29;;;;;;;2.67;0.60;;;9.30;99.90;;;;;;5077730;28;20123;-68
2023/01/06 11:19:07;;;;;;;6.18;0.80;;;9.30;99.90;;;;;;5094363;28;20067;-67
2023/01/06 11:21:45;;;;;;;1.98;0.52;;;9.30;99.90;;;;;;5075915;28;20092;-68
2023/01/06 11:24:18;;;;;;;3.33;0.88;;;9.30;99.90;;;;;;5094071;28;20109;-68
2023/01/06 11:26:53;;;;;;;3.60;0.50;;;9.30;99.90;;;;;;5093893;28;20069;-69
2023/01/06 11:29:31;;;;;;;8.60;0.55;;;9.30;99.90;;;;;;5076963;28;20350;-68
2023/01/06 11:32:13;;;;;;;5.38;0.50;;;9.40;99.90;;;;;;5093924;28;20126;-69
2023/01/06 11:34:50;;;;;;;4.45;0.60;;;9.40;99.90;;;;;;5094818;28;20353;-69
2023/01/06 11:37:27;;;;;;;6.38;1.15;;;9.40;99.90;;;;;;5094413;28;20473;-67
2023/01/06 11:39:53;;;;;;;4.35;0.60;;;9.40;99.90;;;;;;5094474;28;20109;-69
2023/01/06 11:42:19;;;;;;;8.50;0.68;;;9.40;99.90;;;;;;5093452;28;20369;-68
2023/01/06 11:44:45;;;;;;;4.40;0.70;;;9.40;99.90;;;;;;5093804;28;20055;-71
2023/01/06 11:47:15;;;;;;;5.85;0.80;;;9.30;99.90;;;;;;5076048;28;20379;-68
2023/01/06 11:49:42;;;;;;;5.30;0.60;;;9.50;99.90;;;;;;5094312;28;20048;-69
2023/01/06 11:52:25;;;;;;;5.75;0.82;;;9.30;99.90;;;;;;5076773;28;20131;-71
2023/01/06 11:55:01;;;;;;;9.07;0.77;;;9.30;99.90;;;;;;5094341;28;20048;-68
2023/01/06 11:57:57;;;;;;;4.85;0.80;;;9.20;99.90;;;;;;5076540;28;20040;-69
2023/01/06 12:00:40;;;;;;;5.05;0.65;;;9.20;99.90;;;;;;5093723;28;20048;-68
2023/01/06 12:03:33;;;;;;;3.47;0.50;;;9.20;99.90;;;;;;5093716;28;20056;-68
2023/01/06 12:06:18;;;;;;;;;;;9.30;99.90;;;;;;5093557;28;20503;-71
2023/01/06 12:09:09;;;;;;;5.72;0.73;;;9.30;99.90;;;;;;5075946;28;19967;-69
2023/01/06 12:11:38;;;;;;;7.78;0.60;;;9.30;99.90;;;;;;5088562;28;20048;-68
2023/01/06 12:14:04;;;;;;;7.78;0.88;;;9.30;99.90;;;;;;5097623;28;20048;-68
2023/01/06 12:16:42;;;;;;;5.57;0.60;;;9.40;99.90;;;;;;5098189;28;20043;-68
2023/01/06 12:19:20;;;;;;;5.35;0.60;;;9.50;99.90;;;;;;5097525;28;20059;-68
2023/01/06 12:21:46;;;;;;;5.00;0.98;;;9.70;99.90;;;;;;5098303;28;20083;-70
2023/01/06 12:24:15;;;;;;;4.80;0.60;;;9.50;99.90;;;;;;5079616;28;20482;-69
2023/01/06 12:26:42;;;;;;;5.78;0.60;;;9.60;99.90;;;;;;5097355;28;20052;-70
2023/01/06 12:29:16;;;;;;;5.13;0.70;;;9.60;99.90;;;;;;5098121;28;20056;-68
2023/01/06 12:31:59;;;;;;;2.72;0.55;;;9.60;99.90;;;;;;5097699;28;20472;-69
2023/01/06 12:34:35;;;;;;;4.38;0.68;;;9.60;99.90;;;;;;5079527;28;20064;-69
2023/01/06 12:37:25;;;;;;;7.40;1.10;;;9.70;99.90;;;;;;5097882;28;20117;-68
2023/01/06 12:40:09;;;;;;;8.98;1.00;;;9.60;99.90;;;;;;5097198;28;20052;-67
2023/01/06 12:42:43;;;;;;;4.88;0.90;;;9.70;99.90;;;;;;5097078;28;20475;-69
2023/01/06 12:45:14;;;;;;;5.28;0.73;;;9.70;99.90;;;;;;5097149;28;20047;-69
2023/01/06 12:47:50;;;;;;;2.78;0.70;;;9.70;99.90;;;;;;5097047;28;20082;-68
2023/01/06 12:50:38;;;;;;;3.20;0.55;;;9.70;99.90;;;;;;5097608;28;20507;-69
2023/01/06 12:53:17;;;;;;;6.15;0.80;;;9.60;99.90;;;;;;5078656;28;20504;-69
2023/01/06 12:55:48;;;;;;;4.97;0.80;;;9.70;99.90;;;;;;5097009;28;20123;-70
2023/01/06 12:58:26;;;;;;;4.90;0.77;;;9.60;99.90;;;;;;5096656;28;20083;-70
2023/01/06 13:01:19;;;;;;;3.63;0.50;;;9.60;99.90;;;;;;5096594;28;20131;-69
2023/01/06 13:03:50;;;;;;;3.90;0.80;;;9.60;99.90;;;;;;5096894;28;20081;-69
2023/01/06 13:06:16;;;;;;;4.18;0.60;;;9.50;99.90;;;;;;5096732;28;20058;-68
2023/01/06 13:09:01;;;;;;;3.88;0.60;;;9.50;99.90;;;;;;5096878;28;20044;-69
2023/01/06 13:11:47;;;;;;;2.60;0.50;;;9.50;99.90;;;;;;5097441;28;20123;-69